This is the latest recevied weather packets stored in our database for station/object E23XBQ-1. If no packets are shown the sender has not sent any weather packets the latest 10 day(s).
| Time | Temp. | Humidity | Pressure | Rain* | Wind** | Luminosity | Snow |
|---|---|---|---|---|---|---|---|
| 1777900412 | 25.56° C | 85% | 971 hPa | - | - | 0 W/m² | - |
| 1777899787 | 26.11° C | 83% | 971 hPa | - | - | 0 W/m² | - |
| 1777899162 | 26.67° C | 72% | 971 hPa | - | - | 0 W/m² | - |
| 1777898537 | 29.44° C | 59% | 971 hPa | - | - | 0 W/m² | - |
| 1777897913 | 31.67° C | 50% | 970 hPa | - | - | 0 W/m² | - |
| 1777897288 | 32.22° C | 50% | 970 hPa | - | - | 0 W/m² | - |
| 1777896663 | 31.67° C | 48% | 969 hPa | - | - | 0 W/m² | - |
| 1777896039 | 31.67° C | 48% | 969 hPa | - | - | 0 W/m² | - |
| 1777895413 | 32.22° C | 47% | 969 hPa | - | - | 0 W/m² | - |
| 1777894787 | 32.78° C | 41% | 968 hPa | - | - | 0 W/m² | - |
| 1777894162 | 33.33° C | 40% | 968 hPa | - | - | 0 W/m² | - |
| 1777893537 | 33.33° C | 37% | 968 hPa | - | - | 0 W/m² | - |
| 1777892913 | 33.89° C | 37% | 968 hPa | - | - | 0 W/m² | - |
| 1777892288 | 34.44° C | 34% | 968 hPa | - | - | 0 W/m² | - |
| 1777891663 | 35° C | 33% | 968 hPa | - | - | 0 W/m² | - |
| 1777891039 | 35.56° C | 36% | 968 hPa | - | - | 0 W/m² | - |
| 1777890415 | 35.56° C | 32% | 968 hPa | - | - | 0 W/m² | - |
| 1777889791 | 36.11° C | 33% | 968 hPa | - | - | 0 W/m² | - |
| 1777889166 | 36.11° C | 36% | 968 hPa | - | - | 0 W/m² | - |
| 1777888541 | 36.11° C | 38% | 968 hPa | - | - | 0 W/m² | - |
| 1777887916 | 35.56° C | 45% | 968 hPa | - | - | 0 W/m² | - |
| 1777887292 | 34.44° C | 50% | 968 hPa | - | - | 0 W/m² | - |
| 1777886667 | 33.33° C | 49% | 968 hPa | - | - | 0 W/m² | - |
| 1777886042 | 33.89° C | 44% | 968 hPa | - | - | 0 W/m² | - |
| 1777885417 | 35° C | 39% | 968 hPa | - | - | 0 W/m² | - |
* Rain since midnight (hover to see other rain measurements)
** Current wind speed in m/s (hover to see current wind gust speed)